createdAt,value
2018-05-21T00:00:32.340Z,3.83
2018-05-21T00:02:58.572Z,3.30
2018-05-21T00:05:25.529Z,3.53
2018-05-21T00:07:52.644Z,3.90
2018-05-21T00:10:19.021Z,4.00
2018-05-21T00:12:45.338Z,4.13
2018-05-21T00:15:11.716Z,4.03
2018-05-21T00:17:38.044Z,4.17
2018-05-21T00:20:04.336Z,4.37
2018-05-21T00:22:31.316Z,4.27
2018-05-21T00:24:57.578Z,3.67
2018-05-21T00:27:23.868Z,4.47
2018-05-21T00:29:50.230Z,4.10
2018-05-21T00:32:16.420Z,4.10
2018-05-21T00:34:42.688Z,3.70
2018-05-21T00:37:08.939Z,3.40
2018-05-21T00:39:35.931Z,4.47
2018-05-21T00:42:02.214Z,4.27
2018-05-21T00:44:29.257Z,4.83
2018-05-21T00:46:56.315Z,3.97
2018-05-21T00:49:23.225Z,4.00
2018-05-21T00:51:49.424Z,4.17
2018-05-21T00:54:15.627Z,4.73
2018-05-21T00:56:42.585Z,5.07
2018-05-21T00:59:08.789Z,4.70
2018-05-21T01:01:35.732Z,4.43
2018-05-21T01:04:02.691Z,4.20
2018-05-21T01:06:28.908Z,5.30
2018-05-21T01:08:55.809Z,4.50
2018-05-21T01:11:22.013Z,4.90
2018-05-21T01:13:48.261Z,5.07
2018-05-21T01:16:14.412Z,4.57
2018-05-21T01:18:40.605Z,4.93
2018-05-21T01:21:06.758Z,4.63
2018-05-21T01:23:32.965Z,4.97
2018-05-21T01:25:59.194Z,5.40
2018-05-21T01:28:25.410Z,6.10
2018-05-21T01:30:51.599Z,5.00
2018-05-21T01:33:18.580Z,5.47
2018-05-21T01:35:44.772Z,5.30
2018-05-21T01:38:11.683Z,4.80
2018-05-21T01:40:37.882Z,5.00
2018-05-21T01:43:04.036Z,4.80
2018-05-21T01:45:30.207Z,5.83
2018-05-21T01:47:56.421Z,6.73
2018-05-21T01:50:23.373Z,5.70
2018-05-21T01:52:50.294Z,4.93
2018-05-21T01:55:16.501Z,5.57
2018-05-21T01:57:42.685Z,5.30
2018-05-21T02:00:09.603Z,5.30
2018-05-21T02:02:35.848Z,6.00
2018-05-21T02:05:02.817Z,6.00
2018-05-21T02:07:29.024Z,5.30
2018-05-21T02:09:55.957Z,5.53
2018-05-21T02:12:22.886Z,6.50
2018-05-21T02:14:49.098Z,6.60
2018-05-21T02:17:15.282Z,5.47
2018-05-21T02:19:41.490Z,5.73
2018-05-21T02:22:07.671Z,6.60
2018-05-21T02:24:33.839Z,6.10
2018-05-21T02:27:00.116Z,5.33
2018-05-21T02:29:26.268Z,5.73
2018-05-21T02:31:52.421Z,5.80
2018-05-21T02:34:18.629Z,6.07
2018-05-21T02:36:44.849Z,6.37
2018-05-21T02:39:11.059Z,5.87
2018-05-21T02:41:37.330Z,6.37
2018-05-21T02:44:03.536Z,6.27
2018-05-21T02:46:29.776Z,5.80
2018-05-21T02:48:55.967Z,6.37
2018-05-21T02:51:22.161Z,5.97
2018-05-21T02:53:49.062Z,6.57
2018-05-21T02:56:15.287Z,6.10
2018-05-21T02:58:41.514Z,6.03
2018-05-21T03:01:07.737Z,6.00
2018-05-21T03:03:33.906Z,6.23
2018-05-21T03:06:00.840Z,5.50
2018-05-21T03:08:27.018Z,5.90
2018-05-21T03:10:53.225Z,5.90
2018-05-21T03:13:19.374Z,6.30
2018-05-21T03:15:45.523Z,5.97
2018-05-21T03:18:11.747Z,6.93
2018-05-21T03:20:37.916Z,6.13
2018-05-21T03:23:04.824Z,6.30
2018-05-21T03:25:31.027Z,6.80
2018-05-21T03:27:57.250Z,6.93
2018-05-21T03:30:23.439Z,5.50
2018-05-21T03:32:49.644Z,7.00
2018-05-21T03:35:15.797Z,5.80
2018-05-21T03:37:41.979Z,6.60
2018-05-21T03:40:08.215Z,6.17
2018-05-21T03:42:34.422Z,7.17
2018-05-21T03:45:00.639Z,6.80
2018-05-21T03:47:26.849Z,6.17
2018-05-21T03:49:53.753Z,5.73
2018-05-21T03:52:19.941Z,6.27
2018-05-21T03:54:46.203Z,5.73
2018-05-21T03:57:12.396Z,6.27
2018-05-21T03:59:50.847Z,5.83
2018-05-21T04:02:29.336Z,6.30
2018-05-21T04:04:55.533Z,6.23
2018-05-21T04:07:22.402Z,6.10
2018-05-21T04:09:48.581Z,5.57
2018-05-21T04:12:14.785Z,5.67
2018-05-21T04:14:40.991Z,6.13
2018-05-21T04:17:07.212Z,5.33
2018-05-21T04:19:33.409Z,5.90
2018-05-21T04:22:00.311Z,6.10
2018-05-21T04:24:26.486Z,6.23
2018-05-21T04:26:53.551Z,6.20
2018-05-21T04:29:19.756Z,6.00
2018-05-21T04:31:46.646Z,5.93
2018-05-21T04:34:12.830Z,5.90
2018-05-21T04:36:39.783Z,6.10
2018-05-21T04:39:06.742Z,6.33
2018-05-21T04:41:32.974Z,5.93
2018-05-21T04:43:59.198Z,5.10
2018-05-21T04:46:25.350Z,6.10
2018-05-21T04:48:51.518Z,5.90
2018-05-21T04:51:17.709Z,5.40
2018-05-21T04:53:43.891Z,5.97
2018-05-21T04:56:10.821Z,5.97
2018-05-21T04:58:37.742Z,5.60
2018-05-21T05:01:03.885Z,5.40
2018-05-21T05:03:30.031Z,6.17
2018-05-21T05:05:57.006Z,5.07
2018-05-21T05:08:23.156Z,5.50
2018-05-21T05:10:49.404Z,5.73
2018-05-21T05:13:15.617Z,5.60
2018-05-21T05:15:41.793Z,5.30
2018-05-21T05:18:08.669Z,5.10
2018-05-21T05:20:34.805Z,5.03
2018-05-21T05:23:00.938Z,5.50
2018-05-21T05:25:27.043Z,5.00
2018-05-21T05:27:53.213Z,5.57
2018-05-21T05:30:19.387Z,5.40
2018-05-21T05:32:45.610Z,5.00
2018-05-21T05:35:11.775Z,5.00
2018-05-21T05:37:38.002Z,5.67
2018-05-21T05:40:04.198Z,5.77
2018-05-21T05:42:30.415Z,5.60
2018-05-21T05:44:57.794Z,5.60
2018-05-21T05:47:23.928Z,5.60
2018-05-21T05:49:50.114Z,5.20
2018-05-21T05:52:16.993Z,4.73
2018-05-21T05:54:43.210Z,5.20
2018-05-21T05:57:09.397Z,5.57
2018-05-21T05:59:36.325Z,5.73
2018-05-21T06:02:02.581Z,4.53
2018-05-21T06:04:29.505Z,5.43
2018-05-21T06:06:55.756Z,5.00
2018-05-21T06:09:22.766Z,5.27
2018-05-21T06:11:48.999Z,5.83
2018-05-21T06:14:35.059Z,5.10
2018-05-21T06:17:01.244Z,5.20
2018-05-21T06:19:29.581Z,4.60
2018-05-21T06:21:55.791Z,4.90
2018-05-21T06:24:22.370Z,4.97
2018-05-21T06:26:49.337Z,5.50
2018-05-21T06:29:16.262Z,4.97
2018-05-21T06:31:42.517Z,5.57
2018-05-21T06:34:09.581Z,5.20
2018-05-21T06:36:35.760Z,5.07
2018-05-21T06:39:01.978Z,4.97
2018-05-21T06:41:28.196Z,5.30
2018-05-21T06:43:54.444Z,4.87
2018-05-21T06:46:20.637Z,4.47
2018-05-21T06:48:46.881Z,5.30
2018-05-21T06:51:13.095Z,5.03
2018-05-21T06:53:39.340Z,5.50
2018-05-21T06:56:05.557Z,5.13
2018-05-21T06:58:31.759Z,4.50
2018-05-21T07:00:58.025Z,5.03
2018-05-21T07:03:24.203Z,5.30
2018-05-21T07:05:51.175Z,4.80
2018-05-21T07:08:17.391Z,4.40
2018-05-21T07:10:43.603Z,4.77
2018-05-21T07:13:09.763Z,4.57
2018-05-21T07:15:35.942Z,5.10
2018-05-21T07:18:02.146Z,4.90
2018-05-21T07:20:28.375Z,4.83
2018-05-21T07:22:54.534Z,5.07
2018-05-21T07:25:21.499Z,5.43
2018-05-21T07:27:47.714Z,4.30
2018-05-21T07:30:14.686Z,4.50
2018-05-21T07:32:40.889Z,5.10
2018-05-21T07:35:07.812Z,4.87
2018-05-21T07:37:34.064Z,4.93
2018-05-21T07:40:01.038Z,4.87
2018-05-21T07:42:27.207Z,5.03
2018-05-21T07:44:53.400Z,5.37
2018-05-21T07:47:19.641Z,5.10
2018-05-21T07:49:45.807Z,4.43
2018-05-21T07:52:12.062Z,5.07
2018-05-21T07:54:38.268Z,4.20
2018-05-21T07:57:05.243Z,5.00
2018-05-21T07:59:31.456Z,4.30
2018-05-21T08:01:57.704Z,5.17
2018-05-21T08:04:23.874Z,5.30
2018-05-21T08:06:50.084Z,3.47
2018-05-21T08:09:16.301Z,4.50
2018-05-21T08:11:42.485Z,5.10
2018-05-21T08:14:09.387Z,4.40
2018-05-21T08:16:35.564Z,5.03
2018-05-21T08:19:01.775Z,4.40
2018-05-21T08:21:35.663Z,3.90
2018-05-21T08:24:01.946Z,4.27
2018-05-21T08:26:28.143Z,4.30
2018-05-21T08:28:55.026Z,3.87
2018-05-21T08:31:21.188Z,4.57
2018-05-21T08:33:47.394Z,4.30
2018-05-21T08:36:13.605Z,4.97
2018-05-21T08:38:39.772Z,3.97
2018-05-21T08:41:05.998Z,4.70
2018-05-21T08:43:32.175Z,4.60
2018-05-21T08:45:58.397Z,4.50
2018-05-21T08:48:24.632Z,4.60
2018-05-21T08:50:51.502Z,4.57
2018-05-21T08:53:17.687Z,4.70
2018-05-21T08:55:44.611Z,5.20
2018-05-21T08:58:10.808Z,4.40
2018-05-21T09:00:37.085Z,4.40
2018-05-21T09:03:04.061Z,3.80
2018-05-21T09:05:30.249Z,3.30
2018-05-21T09:07:57.185Z,4.00
2018-05-21T09:10:23.369Z,4.10
2018-05-21T09:12:49.522Z,4.63
2018-05-21T09:15:15.769Z,4.20
2018-05-21T09:17:41.968Z,4.13
2018-05-21T09:20:08.226Z,4.10
2018-05-21T09:22:34.495Z,4.17
2018-05-21T09:25:00.640Z,4.40
2018-05-21T09:27:26.822Z,4.43
2018-05-21T09:29:53.813Z,4.03
2018-05-21T09:32:20.083Z,4.20
2018-05-21T09:34:46.191Z,4.67
2018-05-21T09:37:12.380Z,3.87
2018-05-21T09:39:38.625Z,4.77
2018-05-21T09:42:04.834Z,4.50
2018-05-21T09:44:31.721Z,4.10
2018-05-21T09:46:57.982Z,3.73
2018-05-21T09:49:24.918Z,3.53
2018-05-21T09:51:51.844Z,3.80
2018-05-21T09:54:17.997Z,4.30
2018-05-21T09:56:44.947Z,4.03
2018-05-21T09:59:11.920Z,4.03
2018-05-21T10:01:38.178Z,4.20
2018-05-21T10:04:04.384Z,3.97
2018-05-21T10:06:30.526Z,4.60
2018-05-21T10:08:56.689Z,4.30
2018-05-21T10:11:22.887Z,4.20
2018-05-21T10:13:49.093Z,4.47
2018-05-21T10:16:15.294Z,3.70
2018-05-21T10:18:42.260Z,3.80
2018-05-21T10:21:08.435Z,3.47
2018-05-21T10:23:34.623Z,4.30
2018-05-21T10:26:00.875Z,4.07
2018-05-21T10:28:27.059Z,3.80
2018-05-21T10:30:53.304Z,3.90
2018-05-21T10:33:19.487Z,4.17
2018-05-21T10:35:45.718Z,4.07
2018-05-21T10:38:11.862Z,5.50
2018-05-21T10:40:38.831Z,4.67
2018-05-21T10:43:04.951Z,4.33
2018-05-21T10:45:31.155Z,3.90
2018-05-21T10:47:58.091Z,4.20
2018-05-21T10:50:25.105Z,3.80
2018-05-21T10:52:51.322Z,3.93
2018-05-21T10:55:17.564Z,4.53
2018-05-21T10:57:43.777Z,4.30
2018-05-21T11:00:10.022Z,6.90
2018-05-21T11:02:36.265Z,4.10
2018-05-21T11:05:02.471Z,4.23
2018-05-21T11:07:28.634Z,4.13
2018-05-21T11:09:54.809Z,4.30
2018-05-21T11:12:20.997Z,8.73
2018-05-21T11:14:48.013Z,5.93
2018-05-21T11:17:14.230Z,4.43
2018-05-21T11:19:40.431Z,4.17
2018-05-21T11:22:06.602Z,4.43
2018-05-21T11:24:32.792Z,7.90
2018-05-21T11:26:59.013Z,4.70
2018-05-21T11:29:25.194Z,6.07
2018-05-21T11:31:51.511Z,5.23
2018-05-21T11:34:18.388Z,5.03
2018-05-21T11:36:45.339Z,4.77
2018-05-21T11:39:11.533Z,3.80
2018-05-21T11:41:37.658Z,4.53
2018-05-21T11:44:03.882Z,7.10
2018-05-21T11:46:30.095Z,12.13
2018-05-21T11:48:56.287Z,6.30
2018-05-21T11:51:22.475Z,4.80
2018-05-21T11:53:48.612Z,5.20
2018-05-21T11:56:14.809Z,3.77
2018-05-21T11:58:41.039Z,5.13
2018-05-21T12:01:07.248Z,4.73
2018-05-21T12:03:33.460Z,4.07
2018-05-21T12:05:59.660Z,4.30
2018-05-21T12:08:26.615Z,4.23
2018-05-21T12:10:52.789Z,4.10
2018-05-21T12:13:19.036Z,4.37
2018-05-21T12:15:45.244Z,3.90
2018-05-21T12:18:11.505Z,4.50
2018-05-21T12:20:38.395Z,4.33
2018-05-21T12:23:04.576Z,5.03
2018-05-21T12:25:30.719Z,4.50
2018-05-21T12:27:57.694Z,4.70
2018-05-21T12:30:23.850Z,4.87
2018-05-21T12:32:50.098Z,4.17
2018-05-21T12:35:16.341Z,7.50
2018-05-21T12:37:43.306Z,5.47
2018-05-21T12:40:09.514Z,4.33
2018-05-21T12:42:36.491Z,4.23
2018-05-21T12:45:02.685Z,3.40
2018-05-21T12:47:29.637Z,4.10
2018-05-21T12:49:56.580Z,4.30
2018-05-21T12:52:23.514Z,3.80
2018-05-21T12:54:49.689Z,3.80
2018-05-21T12:57:16.044Z,3.73
2018-05-21T12:59:42.254Z,4.00
2018-05-21T13:02:08.441Z,4.50
2018-05-21T13:04:35.415Z,3.87
2018-05-21T13:07:01.667Z,3.73
2018-05-21T13:09:27.875Z,3.67
2018-05-21T13:11:54.057Z,3.60
2018-05-21T13:14:20.246Z,4.30
2018-05-21T13:16:46.461Z,4.17
2018-05-21T13:19:12.665Z,4.20
2018-05-21T13:21:39.588Z,3.83
2018-05-21T13:24:06.666Z,4.47
2018-05-21T13:26:32.837Z,3.40
2018-05-21T13:28:59.028Z,4.00
2018-05-21T13:31:25.203Z,3.57
2018-05-21T13:33:51.398Z,3.30
2018-05-21T13:36:17.548Z,3.57
2018-05-21T13:38:43.732Z,3.87
2018-05-21T13:41:09.933Z,3.70
2018-05-21T13:43:36.933Z,3.77
2018-05-21T13:46:03.169Z,3.87
2018-05-21T13:48:29.331Z,3.63
2018-05-21T13:50:56.323Z,3.43
2018-05-21T13:53:23.195Z,3.80
2018-05-21T13:55:49.395Z,3.23
2018-05-21T13:58:15.583Z,3.80
2018-05-21T14:00:42.536Z,3.67
2018-05-21T14:03:09.489Z,3.90
2018-05-21T14:05:35.721Z,4.13
2018-05-21T14:08:01.942Z,3.70
2018-05-21T14:10:28.170Z,3.50
2018-05-21T14:12:54.340Z,4.13
2018-05-21T14:15:20.565Z,3.50
2018-05-21T14:17:46.759Z,3.50
2018-05-21T14:20:12.926Z,3.50
2018-05-21T14:22:39.095Z,4.60
2018-05-21T14:25:06.039Z,3.33
2018-05-21T14:27:32.214Z,3.00
2018-05-21T14:29:58.406Z,3.30
2018-05-21T14:32:25.355Z,3.77
2018-05-21T14:34:52.317Z,3.30
2018-05-21T14:37:18.505Z,4.00
2018-05-21T14:39:45.416Z,3.40
2018-05-21T14:42:11.630Z,3.30
2018-05-21T14:44:37.810Z,3.60
2018-05-21T14:47:04.757Z,3.30
2018-05-21T14:49:31.732Z,3.57
2018-05-21T14:51:57.926Z,3.63
2018-05-21T14:54:24.898Z,3.40
2018-05-21T14:56:51.079Z,3.33
2018-05-21T14:59:17.328Z,3.57
2018-05-21T15:01:44.233Z,3.60
2018-05-21T15:04:10.484Z,4.00
2018-05-21T15:06:36.673Z,3.50
2018-05-21T15:09:02.905Z,3.80
2018-05-21T15:11:29.093Z,3.47
2018-05-21T15:13:56.031Z,4.10
2018-05-21T15:16:22.959Z,4.13
2018-05-21T15:18:49.225Z,3.60
2018-05-21T15:21:15.406Z,3.90
2018-05-21T15:23:41.570Z,4.33
2018-05-21T15:26:08.521Z,4.43
2018-05-21T15:28:34.734Z,4.60
2018-05-21T15:31:01.677Z,4.13
2018-05-21T15:33:28.664Z,3.97
2018-05-21T15:35:54.827Z,5.10
2018-05-21T15:38:21.037Z,4.30
2018-05-21T15:40:47.327Z,4.47
2018-05-21T15:43:13.618Z,4.33
2018-05-21T15:45:39.773Z,3.73
2018-05-21T15:48:06.744Z,3.80
2018-05-21T15:50:32.933Z,4.60
2018-05-21T15:52:59.201Z,4.00
2018-05-21T15:55:25.408Z,3.90
2018-05-21T15:57:52.398Z,3.60
2018-05-21T16:00:18.577Z,4.77
2018-05-21T16:02:45.513Z,4.10
2018-05-21T16:05:12.486Z,4.27
2018-05-21T16:07:38.631Z,4.10
2018-05-21T16:10:04.823Z,4.97
2018-05-21T16:12:31.717Z,4.70
2018-05-21T16:14:57.926Z,4.90
2018-05-21T16:17:24.131Z,4.20
2018-05-21T16:19:50.306Z,3.90
2018-05-21T16:22:16.462Z,4.27
2018-05-21T16:24:42.634Z,4.17
2018-05-21T16:27:08.805Z,4.17
2018-05-21T16:29:34.958Z,4.37
2018-05-21T16:32:01.964Z,3.80
2018-05-21T16:34:28.131Z,3.80
2018-05-21T16:36:54.329Z,4.80
2018-05-21T16:39:20.545Z,4.00
2018-05-21T16:41:46.842Z,4.03
2018-05-21T16:44:12.980Z,3.60
2018-05-21T16:46:39.250Z,4.33
2018-05-21T16:49:05.489Z,3.70
2018-05-21T16:51:32.463Z,5.00
2018-05-21T16:53:58.734Z,5.53
2018-05-21T16:56:25.647Z,4.60
2018-05-21T16:58:51.845Z,4.70
2018-05-21T17:01:18.801Z,4.10
2018-05-21T17:03:45.011Z,4.30
2018-05-21T17:06:11.983Z,4.70
2018-05-21T17:08:38.192Z,4.03
2018-05-21T17:11:05.203Z,4.13
2018-05-21T17:13:38.243Z,3.87
2018-05-21T17:16:04.493Z,3.20
2018-05-21T17:18:30.730Z,3.40
2018-05-21T17:20:56.964Z,3.30
2018-05-21T17:23:23.170Z,2.97
2018-05-21T17:25:49.354Z,3.00
2018-05-21T17:28:15.584Z,3.13
2018-05-21T17:30:41.797Z,2.80
2018-05-21T17:33:07.981Z,3.10
2018-05-21T17:35:34.262Z,2.83
2018-05-21T17:38:00.463Z,3.10
2018-05-21T17:40:26.673Z,2.40
2018-05-21T17:42:52.963Z,2.43
2018-05-21T17:45:19.977Z,2.63
2018-05-21T17:47:46.236Z,2.60
2018-05-21T17:50:13.159Z,3.00
2018-05-21T17:52:39.426Z,3.70
2018-05-21T17:55:05.673Z,3.30
2018-05-21T17:57:31.856Z,2.77
2018-05-21T17:59:58.780Z,2.63
2018-05-21T18:02:24.956Z,3.10
2018-05-21T18:04:51.924Z,2.60
2018-05-21T18:07:18.137Z,3.00
2018-05-21T18:09:44.373Z,2.97
2018-05-21T18:12:10.562Z,2.63
2018-05-21T18:14:37.593Z,3.07
2018-05-21T18:17:04.483Z,2.87
2018-05-21T18:19:30.753Z,3.20
2018-05-21T18:21:56.970Z,2.80
2018-05-21T18:24:23.174Z,2.53
2018-05-21T18:26:49.452Z,2.80
2018-05-21T18:29:15.588Z,2.60
2018-05-21T18:31:41.837Z,3.23
2018-05-21T18:34:08.761Z,2.17
2018-05-21T18:36:35.739Z,2.70
2018-05-21T18:39:02.044Z,2.47
2018-05-21T18:41:29.104Z,2.50
2018-05-21T18:43:56.040Z,3.10
2018-05-21T18:46:22.992Z,2.50
2018-05-21T18:48:49.955Z,1.90
2018-05-21T18:51:16.193Z,2.60
2018-05-21T18:53:42.462Z,2.60
2018-05-21T18:56:08.660Z,3.20
2018-05-21T18:58:34.885Z,3.07
2018-05-21T19:01:01.126Z,3.00
2018-05-21T19:03:27.366Z,2.57
2018-05-21T19:05:53.580Z,3.10
2018-05-21T19:08:19.835Z,3.20
2018-05-21T19:10:46.801Z,2.90
2018-05-21T19:13:13.769Z,3.10
2018-05-21T19:15:40.766Z,4.13
2018-05-21T19:18:06.973Z,3.40
2018-05-21T19:20:33.183Z,3.67
2018-05-21T19:22:59.417Z,3.03
2018-05-21T19:25:25.704Z,3.67
2018-05-21T19:27:52.617Z,3.40
2018-05-21T19:30:18.838Z,3.60
2018-05-21T19:32:45.041Z,3.80
2018-05-21T19:35:11.242Z,3.93
2018-05-21T19:37:38.118Z,3.17
2018-05-21T19:40:04.344Z,3.10
2018-05-21T19:42:30.538Z,3.53
2018-05-21T19:44:57.442Z,3.67
2018-05-21T19:47:23.651Z,3.33
2018-05-21T19:49:49.825Z,3.20
2018-05-21T19:52:16.761Z,3.70
2018-05-21T19:54:42.982Z,3.70
2018-05-21T19:57:09.225Z,3.53
2018-05-21T19:59:35.413Z,3.40
2018-05-21T20:02:01.654Z,3.00
2018-05-21T20:04:27.938Z,2.97
2018-05-21T20:06:54.845Z,3.33
2018-05-21T20:09:21.097Z,3.20
2018-05-21T20:11:48.009Z,3.50
2018-05-21T20:14:14.219Z,3.07
2018-05-21T20:16:41.420Z,3.47
2018-05-21T20:19:08.382Z,2.87
2018-05-21T20:21:34.587Z,3.00
2018-05-21T20:24:00.861Z,3.37
2018-05-21T20:26:27.088Z,3.33
2018-05-21T20:28:53.373Z,3.40
2018-05-21T20:31:19.593Z,3.57
2018-05-21T20:33:46.524Z,4.13
2018-05-21T20:36:12.753Z,4.70
2018-05-21T20:38:38.995Z,6.40
2018-05-21T20:41:05.205Z,7.57
2018-05-21T20:43:31.444Z,7.03
2018-05-21T20:45:57.711Z,5.30
2018-05-21T20:48:24.681Z,6.03
2018-05-21T20:50:50.916Z,5.53
2018-05-21T20:53:17.101Z,5.27
2018-05-21T20:55:44.015Z,5.63
2018-05-21T20:58:10.190Z,5.60
2018-05-21T21:00:37.069Z,5.10
2018-05-21T21:03:03.285Z,4.90
2018-05-21T21:05:29.489Z,4.27
2018-05-21T21:07:55.683Z,4.63
2018-05-21T21:10:21.852Z,4.43
2018-05-21T21:12:48.066Z,4.03
2018-05-21T21:15:14.999Z,4.60
2018-05-21T21:17:41.981Z,4.30
2018-05-21T21:20:08.208Z,4.60
2018-05-21T21:22:34.398Z,5.23
2018-05-21T21:25:00.531Z,4.40
2018-05-21T21:27:27.516Z,4.07
2018-05-21T21:29:53.933Z,4.80
2018-05-21T21:32:20.168Z,4.40
2018-05-21T21:34:47.097Z,4.17
2018-05-21T21:37:13.400Z,4.53
2018-05-21T21:39:39.610Z,4.97
2018-05-21T21:42:05.801Z,3.90
2018-05-21T21:44:32.049Z,5.10
2018-05-21T21:46:58.140Z,5.23
2018-05-21T21:49:25.050Z,4.70
2018-05-21T21:51:51.247Z,4.50
2018-05-21T21:54:17.393Z,4.83
2018-05-21T21:56:43.565Z,4.37
2018-05-21T21:59:09.754Z,4.50
2018-05-21T22:01:35.973Z,4.40
2018-05-21T22:04:02.221Z,4.40
2018-05-21T22:06:29.168Z,4.53
2018-05-21T22:08:55.352Z,4.23
2018-05-21T22:11:21.579Z,4.30
2018-05-21T22:13:47.711Z,4.20
2018-05-21T22:16:21.125Z,4.93
2018-05-21T22:18:47.359Z,4.40
2018-05-21T22:21:13.590Z,4.37
2018-05-21T22:23:39.804Z,4.37
2018-05-21T22:26:06.023Z,5.30
2018-05-21T22:28:32.272Z,5.37
2018-05-21T22:30:58.501Z,5.10
2018-05-21T22:33:24.741Z,4.30
2018-05-21T22:35:51.640Z,4.60
2018-05-21T22:38:17.881Z,4.50
2018-05-21T22:40:44.112Z,5.23
2018-05-21T22:43:10.299Z,4.87
2018-05-21T22:45:37.207Z,4.87
2018-05-21T22:48:04.213Z,4.53
2018-05-21T22:50:30.417Z,4.60
2018-05-21T22:52:56.592Z,4.83
2018-05-21T22:55:22.824Z,4.87
2018-05-21T22:57:49.009Z,4.90
2018-05-21T23:00:15.207Z,4.73
2018-05-21T23:02:41.415Z,5.63
2018-05-21T23:05:07.650Z,4.60
2018-05-21T23:07:33.808Z,4.97
2018-05-21T23:10:00.025Z,4.27
2018-05-21T23:12:26.933Z,4.70
2018-05-21T23:14:53.216Z,4.53
2018-05-21T23:17:19.372Z,5.10
2018-05-21T23:19:45.564Z,4.57
2018-05-21T23:22:11.735Z,5.33
2018-05-21T23:24:37.904Z,4.80
2018-05-21T23:27:04.871Z,5.33
2018-05-21T23:29:31.051Z,5.53
2018-05-21T23:31:57.239Z,5.43
2018-05-21T23:34:23.475Z,5.73
2018-05-21T23:36:49.767Z,5.40
2018-05-21T23:39:16.819Z,4.87
2018-05-21T23:41:43.849Z,5.20
2018-05-21T23:44:10.869Z,5.20
2018-05-21T23:46:38.736Z,5.07
2018-05-21T23:49:04.979Z,6.20
2018-05-21T23:51:31.201Z,4.70
2018-05-21T23:53:57.515Z,5.70
2018-05-21T23:56:23.705Z,5.43
2018-05-21T23:58:49.963Z,5.70
